sensor_id;sensor_type;location;lat;lon;timestamp;pressure;altitude;pressure_sealevel;temperature;humidity
64078;BME280;51039;49.696;10.808;2023-02-16T00:01:22;99469.13;;;-0.88;100.00
64078;BME280;51039;49.696;10.808;2023-02-16T00:03:49;99469.03;;;-0.86;100.00
64078;BME280;51039;49.696;10.808;2023-02-16T00:06:15;99467.44;;;-0.89;100.00
64078;BME280;51039;49.696;10.808;2023-02-16T00:08:42;99468.31;;;-0.88;100.00
64078;BME280;51039;49.696;10.808;2023-02-16T00:11:13;99460.19;;;-0.84;100.00
64078;BME280;51039;49.696;10.808;2023-02-16T00:14:00;99460.19;;;-0.84;100.00
64078;BME280;51039;49.696;10.808;2023-02-16T00:16:25;99456.03;;;-0.86;100.00
64078;BME280;51039;49.696;10.808;2023-02-16T00:18:51;99460.38;;;-0.87;100.00
64078;BME280;51039;49.696;10.808;2023-02-16T00:21:16;99458.09;;;-0.91;100.00
64078;BME280;51039;49.696;10.808;2023-02-16T00:23:42;99463.41;;;-0.93;100.00
64078;BME280;51039;49.696;10.808;2023-02-16T00:26:18;99463.63;;;-0.96;100.00
64078;BME280;51039;49.696;10.808;2023-02-16T00:28:49;99461.66;;;-0.92;100.00
64078;BME280;51039;49.696;10.808;2023-02-16T00:31:17;99457.34;;;-1.06;100.00
64078;BME280;51039;49.696;10.808;2023-02-16T00:33:44;99464.13;;;-1.04;100.00
64078;BME280;51039;49.696;10.808;2023-02-16T00:36:10;99459.56;;;-1.00;100.00
64078;BME280;51039;49.696;10.808;2023-02-16T00:38:35;99464.63;;;-0.99;100.00
64078;BME280;51039;49.696;10.808;2023-02-16T00:41:01;99467.03;;;-0.95;100.00
64078;BME280;51039;49.696;10.808;2023-02-16T00:43:27;99468.28;;;-1.01;100.00
64078;BME280;51039;49.696;10.808;2023-02-16T00:45:54;99461.53;;;-0.91;100.00
64078;BME280;51039;49.696;10.808;2023-02-16T00:48:21;99461.34;;;-0.88;100.00
64078;BME280;51039;49.696;10.808;2023-02-16T00:50:47;99461.00;;;-0.83;100.00
64078;BME280;51039;49.696;10.808;2023-02-16T00:53:13;99466.03;;;-0.80;100.00
64078;BME280;51039;49.696;10.808;2023-02-16T00:55:38;99463.50;;;-0.82;100.00
64078;BME280;51039;49.696;10.808;2023-02-16T01:01:11;99466.56;;;-0.75;100.00
64078;BME280;51039;49.696;10.808;2023-02-16T01:03:38;99457.50;;;-0.69;100.00
64078;BME280;51039;49.696;10.808;2023-02-16T01:06:04;99460.28;;;-0.72;100.00
64078;BME280;51039;49.696;10.808;2023-02-16T01:08:48;99459.16;;;-0.68;100.00
64078;BME280;51039;49.696;10.808;2023-02-16T01:11:32;99452.56;;;-0.87;100.00
64078;BME280;51039;49.696;10.808;2023-02-16T01:13:58;99457.38;;;-0.93;100.00
64078;BME280;51039;49.696;10.808;2023-02-16T01:16:24;99459.66;;;-1.02;100.00
64078;BME280;51039;49.696;10.808;2023-02-16T01:18:56;99458.69;;;-1.13;100.00
64078;BME280;51039;49.696;10.808;2023-02-16T01:21:22;99451.00;;;-1.15;100.00
64078;BME280;51039;49.696;10.808;2023-02-16T01:23:47;99443.69;;;-1.10;100.00
64078;BME280;51039;49.696;10.808;2023-02-16T01:26:16;99443.28;;;-1.16;100.00
64078;BME280;51039;49.696;10.808;2023-02-16T01:28:43;99443.47;;;-1.20;100.00
64078;BME280;51039;49.696;10.808;2023-02-16T01:31:10;99439.88;;;-1.17;100.00
64078;BME280;51039;49.696;10.808;2023-02-16T01:33:36;99447.34;;;-1.12;100.00
64078;BME280;51039;49.696;10.808;2023-02-16T01:36:02;99447.47;;;-1.01;100.00
64078;BME280;51039;49.696;10.808;2023-02-16T01:38:28;99437.06;;;-1.01;100.00
64078;BME280;51039;49.696;10.808;2023-02-16T01:41:13;99440.00;;;-0.93;100.00
64078;BME280;51039;49.696;10.808;2023-02-16T01:43:49;99443.44;;;-0.92;100.00
64078;BME280;51039;49.696;10.808;2023-02-16T01:46:20;99446.13;;;-0.94;100.00
64078;BME280;51039;49.696;10.808;2023-02-16T01:48:52;99441.66;;;-0.92;100.00
64078;BME280;51039;49.696;10.808;2023-02-16T01:51:19;99437.81;;;-0.99;100.00
64078;BME280;51039;49.696;10.808;2023-02-16T02:02:39;99427.31;;;-0.85;100.00
64078;BME280;51039;49.696;10.808;2023-02-16T02:13:46;99411.25;;;-1.04;100.00
64078;BME280;51039;49.696;10.808;2023-02-16T02:16:20;99404.00;;;-0.99;100.00
64078;BME280;51039;49.696;10.808;2023-02-16T02:18:48;99410.88;;;-0.98;100.00
64078;BME280;51039;49.696;10.808;2023-02-16T02:21:39;99402.03;;;-0.95;100.00
64078;BME280;51039;49.696;10.808;2023-02-16T02:24:31;99399.22;;;-0.92;100.00
64078;BME280;51039;49.696;10.808;2023-02-16T02:27:35;99406.72;;;-0.88;100.00
64078;BME280;51039;49.696;10.808;2023-02-16T02:35:38;99391.63;;;-0.83;100.00
64078;BME280;51039;49.696;10.808;2023-02-16T02:43:45;99381.13;;;-0.94;100.00
64078;BME280;51039;49.696;10.808;2023-02-16T02:46:30;99381.13;;;-0.94;100.00
64078;BME280;51039;49.696;10.808;2023-02-16T02:48:57;99376.53;;;-1.03;100.00
64078;BME280;51039;49.696;10.808;2023-02-16T02:51:23;99392.34;;;-1.06;100.00
64078;BME280;51039;49.696;10.808;2023-02-16T02:59:43;99380.28;;;-1.07;100.00
64078;BME280;51039;49.696;10.808;2023-02-16T03:02:33;99382.28;;;-0.98;100.00
64078;BME280;51039;49.696;10.808;2023-02-16T03:04:59;99382.78;;;-0.93;100.00
64078;BME280;51039;49.696;10.808;2023-02-16T03:07:29;99383.31;;;-0.88;100.00
64078;BME280;51039;49.696;10.808;2023-02-16T03:10:13;99385.06;;;-0.88;100.00
64078;BME280;51039;49.696;10.808;2023-02-16T03:13:05;99384.22;;;-0.89;100.00
64078;BME280;51039;49.696;10.808;2023-02-16T03:15:35;99373.63;;;-0.99;100.00
64078;BME280;51039;49.696;10.808;2023-02-16T03:18:03;99384.00;;;-0.99;100.00
64078;BME280;51039;49.696;10.808;2023-02-16T03:20:50;99390.47;;;-1.04;100.00
64078;BME280;51039;49.696;10.808;2023-02-16T03:23:35;99373.41;;;-1.08;100.00
64078;BME280;51039;49.696;10.808;2023-02-16T03:26:22;99374.16;;;-1.19;100.00
64078;BME280;51039;49.696;10.808;2023-02-16T03:29:07;99384.03;;;-1.11;100.00
64078;BME280;51039;49.696;10.808;2023-02-16T03:31:40;99382.34;;;-1.12;100.00
64078;BME280;51039;49.696;10.808;2023-02-16T03:34:06;99377.47;;;-1.17;100.00
64078;BME280;51039;49.696;10.808;2023-02-16T03:36:33;99374.66;;;-1.14;100.00
64078;BME280;51039;49.696;10.808;2023-02-16T03:39:01;99378.00;;;-1.25;100.00
64078;BME280;51039;49.696;10.808;2023-02-16T03:41:32;99371.09;;;-1.26;100.00
64078;BME280;51039;49.696;10.808;2023-02-16T03:43:59;99377.91;;;-1.23;100.00
64078;BME280;51039;49.696;10.808;2023-02-16T03:46:25;99374.66;;;-1.27;100.00
64078;BME280;51039;49.696;10.808;2023-02-16T03:48:50;99377.34;;;-1.28;100.00
64078;BME280;51039;49.696;10.808;2023-02-16T03:51:16;99375.03;;;-1.33;100.00
64078;BME280;51039;49.696;10.808;2023-02-16T03:53:41;99372.84;;;-1.39;100.00
64078;BME280;51039;49.696;10.808;2023-02-16T03:56:06;99379.19;;;-1.43;100.00
64078;BME280;51039;49.696;10.808;2023-02-16T03:58:32;99386.16;;;-1.44;100.00
64078;BME280;51039;49.696;10.808;2023-02-16T04:00:57;99381.38;;;-1.50;100.00
64078;BME280;51039;49.696;10.808;2023-02-16T04:03:23;99377.19;;;-1.52;100.00
64078;BME280;51039;49.696;10.808;2023-02-16T04:05:48;99382.53;;;-1.54;100.00
64078;BME280;51039;49.696;10.808;2023-02-16T04:08:14;99383.75;;;-1.60;100.00
64078;BME280;51039;49.696;10.808;2023-02-16T04:10:39;99384.03;;;-1.64;100.00
64078;BME280;51039;49.696;10.808;2023-02-16T04:13:05;99382.56;;;-1.68;100.00
64078;BME280;51039;49.696;10.808;2023-02-16T04:15:31;99377.88;;;-1.76;100.00
64078;BME280;51039;49.696;10.808;2023-02-16T04:17:56;99376.22;;;-1.77;100.00
64078;BME280;51039;49.696;10.808;2023-02-16T04:20:24;99372.34;;;-1.84;100.00
64078;BME280;51039;49.696;10.808;2023-02-16T04:22:51;99369.75;;;-1.84;100.00
64078;BME280;51039;49.696;10.808;2023-02-16T04:25:18;99371.41;;;-1.83;100.00
64078;BME280;51039;49.696;10.808;2023-02-16T04:27:44;99371.63;;;-1.86;100.00
64078;BME280;51039;49.696;10.808;2023-02-16T04:30:11;99379.31;;;-1.85;100.00
64078;BME280;51039;49.696;10.808;2023-02-16T04:32:39;99374.94;;;-1.84;100.00
64078;BME280;51039;49.696;10.808;2023-02-16T04:35:04;99375.13;;;-1.87;100.00
64078;BME280;51039;49.696;10.808;2023-02-16T04:37:30;99387.38;;;-1.89;100.00
64078;BME280;51039;49.696;10.808;2023-02-16T04:39:56;99379.69;;;-1.91;100.00
64078;BME280;51039;49.696;10.808;2023-02-16T04:42:21;99389.56;;;-1.96;100.00
64078;BME280;51039;49.696;10.808;2023-02-16T04:44:46;99384.84;;;-2.04;100.00
64078;BME280;51039;49.696;10.808;2023-02-16T04:47:12;99385.22;;;-2.10;100.00
64078;BME280;51039;49.696;10.808;2023-02-16T04:49:37;99379.94;;;-2.08;100.00
64078;BME280;51039;49.696;10.808;2023-02-16T04:52:03;99388.03;;;-2.13;100.00
64078;BME280;51039;49.696;10.808;2023-02-16T04:54:29;99377.63;;;-2.13;100.00
64078;BME280;51039;49.696;10.808;2023-02-16T04:56:55;99388.94;;;-2.14;100.00
64078;BME280;51039;49.696;10.808;2023-02-16T04:59:20;99386.72;;;-2.20;100.00
64078;BME280;51039;49.696;10.808;2023-02-16T05:01:46;99381.94;;;-2.26;100.00
64078;BME280;51039;49.696;10.808;2023-02-16T05:04:12;99367.91;;;-2.24;100.00
64078;BME280;51039;49.696;10.808;2023-02-16T05:06:38;99375.44;;;-2.19;100.00
64078;BME280;51039;49.696;10.808;2023-02-16T05:09:04;99380.81;;;-2.22;100.00
64078;BME280;51039;49.696;10.808;2023-02-16T05:11:30;99380.16;;;-2.26;100.00
64078;BME280;51039;49.696;10.808;2023-02-16T05:14:24;99388.88;;;-2.27;100.00
64078;BME280;51039;49.696;10.808;2023-02-16T05:17:07;99381.38;;;-2.31;100.00
64078;BME280;51039;49.696;10.808;2023-02-16T05:19:33;99384.91;;;-2.32;100.00
64078;BME280;51039;49.696;10.808;2023-02-16T05:21:59;99393.81;;;-2.37;100.00
64078;BME280;51039;49.696;10.808;2023-02-16T05:24:24;99394.91;;;-2.41;100.00
64078;BME280;51039;49.696;10.808;2023-02-16T05:26:49;99392.13;;;-2.38;100.00
64078;BME280;51039;49.696;10.808;2023-02-16T05:29:14;99389.47;;;-2.36;100.00
64078;BME280;51039;49.696;10.808;2023-02-16T05:31:40;99393.09;;;-2.39;100.00
64078;BME280;51039;49.696;10.808;2023-02-16T05:34:05;99394.19;;;-2.43;100.00
64078;BME280;51039;49.696;10.808;2023-02-16T05:36:30;99394.56;;;-2.49;100.00
64078;BME280;51039;49.696;10.808;2023-02-16T05:38:56;99398.19;;;-2.51;100.00
64078;BME280;51039;49.696;10.808;2023-02-16T05:41:21;99394.84;;;-2.53;100.00
64078;BME280;51039;49.696;10.808;2023-02-16T05:43:50;99386.97;;;-2.52;100.00
64078;BME280;51039;49.696;10.808;2023-02-16T05:46:17;99391.44;;;-2.54;100.00
64078;BME280;51039;49.696;10.808;2023-02-16T05:48:43;99397.63;;;-2.57;100.00
64078;BME280;51039;49.696;10.808;2023-02-16T05:51:09;99390.97;;;-2.61;100.00
64078;BME280;51039;49.696;10.808;2023-02-16T05:53:34;99398.19;;;-2.66;100.00
64078;BME280;51039;49.696;10.808;2023-02-16T05:56:00;99392.00;;;-2.63;100.00
64078;BME280;51039;49.696;10.808;2023-02-16T05:58:25;99402.28;;;-2.62;100.00
64078;BME280;51039;49.696;10.808;2023-02-16T06:00:50;99407.34;;;-2.60;100.00
64078;BME280;51039;49.696;10.808;2023-02-16T06:03:15;99406.81;;;-2.65;100.00
64078;BME280;51039;49.696;10.808;2023-02-16T06:05:41;99404.69;;;-2.73;100.00
64078;BME280;51039;49.696;10.808;2023-02-16T06:08:06;99405.81;;;-2.77;100.00
64078;BME280;51039;49.696;10.808;2023-02-16T06:10:32;99403.22;;;-2.77;100.00
64078;BME280;51039;49.696;10.808;2023-02-16T06:12:58;99412.63;;;-2.76;100.00
64078;BME280;51039;49.696;10.808;2023-02-16T06:15:23;99407.06;;;-2.70;100.00
64078;BME280;51039;49.696;10.808;2023-02-16T06:17:48;99417.84;;;-2.62;100.00
64078;BME280;51039;49.696;10.808;2023-02-16T06:20:13;99421.44;;;-2.64;100.00
64078;BME280;51039;49.696;10.808;2023-02-16T06:22:40;99425.63;;;-2.62;100.00
64078;BME280;51039;49.696;10.808;2023-02-16T06:25:05;99426.34;;;-2.60;100.00
64078;BME280;51039;49.696;10.808;2023-02-16T06:27:30;99433.69;;;-2.52;100.00
64078;BME280;51039;49.696;10.808;2023-02-16T06:29:56;99437.75;;;-2.48;100.00
64078;BME280;51039;49.696;10.808;2023-02-16T06:32:21;99428.09;;;-2.46;100.00
64078;BME280;51039;49.696;10.808;2023-02-16T06:34:46;99421.25;;;-2.47;100.00
64078;BME280;51039;49.696;10.808;2023-02-16T06:37:12;99428.84;;;-2.44;100.00
64078;BME280;51039;49.696;10.808;2023-02-16T06:39:37;99433.66;;;-2.38;100.00
64078;BME280;51039;49.696;10.808;2023-02-16T06:42:02;99430.16;;;-2.37;100.00
64078;BME280;51039;49.696;10.808;2023-02-16T06:44:28;99436.72;;;-2.31;100.00
64078;BME280;51039;49.696;10.808;2023-02-16T06:46:53;99422.06;;;-2.32;100.00
64078;BME280;51039;49.696;10.808;2023-02-16T06:49:19;99434.00;;;-2.29;100.00
64078;BME280;51039;49.696;10.808;2023-02-16T06:51:45;99438.47;;;-2.31;100.00
64078;BME280;51039;49.696;10.808;2023-02-16T06:54:11;99429.72;;;-2.16;100.00
64078;BME280;51039;49.696;10.808;2023-02-16T06:56:37;99435.66;;;-2.14;100.00
64078;BME280;51039;49.696;10.808;2023-02-16T06:59:03;99437.91;;;-2.08;100.00
64078;BME280;51039;49.696;10.808;2023-02-16T07:01:29;99440.94;;;-2.01;100.00
64078;BME280;51039;49.696;10.808;2023-02-16T07:03:55;99435.28;;;-2.08;100.00
64078;BME280;51039;49.696;10.808;2023-02-16T07:06:22;99439.88;;;-1.99;100.00
64078;BME280;51039;49.696;10.808;2023-02-16T07:08:50;99431.84;;;-1.94;100.00
64078;BME280;51039;49.696;10.808;2023-02-16T07:11:16;99431.66;;;-2.05;100.00
64078;BME280;51039;49.696;10.808;2023-02-16T07:13:42;99425.91;;;-1.96;100.00
64078;BME280;51039;49.696;10.808;2023-02-16T07:16:08;99426.63;;;-1.94;100.00
64078;BME280;51039;49.696;10.808;2023-02-16T07:18:33;99431.53;;;-1.89;100.00
64078;BME280;51039;49.696;10.808;2023-02-16T07:20:59;99432.47;;;-1.90;100.00
64078;BME280;51039;49.696;10.808;2023-02-16T07:23:25;99436.31;;;-1.83;100.00
64078;BME280;51039;49.696;10.808;2023-02-16T07:25:50;99437.31;;;-1.71;100.00
64078;BME280;51039;49.696;10.808;2023-02-16T07:28:16;99438.97;;;-1.70;100.00
64078;BME280;51039;49.696;10.808;2023-02-16T07:30:41;99434.53;;;-1.68;100.00
64078;BME280;51039;49.696;10.808;2023-02-16T07:33:07;99444.31;;;-1.59;100.00
64078;BME280;51039;49.696;10.808;2023-02-16T07:35:33;99443.09;;;-1.53;100.00
64078;BME280;51039;49.696;10.808;2023-02-16T07:37:58;99444.56;;;-1.49;100.00
64078;BME280;51039;49.696;10.808;2023-02-16T07:40:24;99434.34;;;-1.52;100.00
64078;BME280;51039;49.696;10.808;2023-02-16T07:42:50;99426.97;;;-1.59;100.00
64078;BME280;51039;49.696;10.808;2023-02-16T07:45:15;99428.25;;;-1.51;100.00
64078;BME280;51039;49.696;10.808;2023-02-16T07:47:40;99438.22;;;-1.45;100.00
64078;BME280;51039;49.696;10.808;2023-02-16T07:50:06;99435.22;;;-1.39;100.00
64078;BME280;51039;49.696;10.808;2023-02-16T07:52:32;99444.94;;;-1.28;100.00
64078;BME280;51039;49.696;10.808;2023-02-16T07:54:58;99440.81;;;-1.05;100.00
64078;BME280;51039;49.696;10.808;2023-02-16T07:57:24;99443.09;;;-1.01;100.00
64078;BME280;51039;49.696;10.808;2023-02-16T07:59:51;99436.53;;;-1.19;100.00
64078;BME280;51039;49.696;10.808;2023-02-16T08:02:17;99435.84;;;-0.95;100.00
64078;BME280;51039;49.696;10.808;2023-02-16T08:04:44;99436.25;;;-0.63;100.00
64078;BME280;51039;49.696;10.808;2023-02-16T08:07:16;99430.63;;;-0.44;98.92
64078;BME280;51039;49.696;10.808;2023-02-16T08:09:41;99437.47;;;-0.30;97.91
64078;BME280;51039;49.696;10.808;2023-02-16T08:12:11;99440.50;;;-0.36;97.68
64078;BME280;51039;49.696;10.808;2023-02-16T08:14:37;99440.34;;;-0.09;97.87
64078;BME280;51039;49.696;10.808;2023-02-16T08:17:04;99440.91;;;0.07;96.07
64078;BME280;51039;49.696;10.808;2023-02-16T08:19:30;99443.59;;;0.18;96.07
64078;BME280;51039;49.696;10.808;2023-02-16T08:21:56;99432.25;;;0.31;96.48
64078;BME280;51039;49.696;10.808;2023-02-16T08:24:23;99442.66;;;0.68;96.70
64078;BME280;51039;49.696;10.808;2023-02-16T08:26:49;99434.28;;;0.87;94.81
64078;BME280;51039;49.696;10.808;2023-02-16T08:29:17;99429.06;;;0.98;91.60
64078;BME280;51039;49.696;10.808;2023-02-16T08:31:43;99432.47;;;0.76;92.05
64078;BME280;51039;49.696;10.808;2023-02-16T08:34:10;99427.94;;;0.67;93.19
64078;BME280;51039;49.696;10.808;2023-02-16T08:36:37;99440.09;;;0.55;93.57
64078;BME280;51039;49.696;10.808;2023-02-16T08:39:05;99446.06;;;0.44;92.93
64078;BME280;51039;49.696;10.808;2023-02-16T08:41:33;99439.47;;;0.51;93.51
64078;BME280;51039;49.696;10.808;2023-02-16T08:44:00;99448.13;;;0.52;92.96
64078;BME280;51039;49.696;10.808;2023-02-16T08:46:27;99455.25;;;0.26;93.07
64078;BME280;51039;49.696;10.808;2023-02-16T08:48:56;99450.22;;;0.23;95.39
64078;BME280;51039;49.696;10.808;2023-02-16T08:51:25;99453.78;;;0.70;93.86
64078;BME280;51039;49.696;10.808;2023-02-16T08:53:52;99457.38;;;1.27;92.41
64078;BME280;51039;49.696;10.808;2023-02-16T08:56:17;99471.03;;;1.42;90.43
64078;BME280;51039;49.696;10.808;2023-02-16T08:58:44;99464.28;;;1.39;90.82
64078;BME280;51039;49.696;10.808;2023-02-16T09:01:10;99467.25;;;1.68;90.65
64078;BME280;51039;49.696;10.808;2023-02-16T09:03:37;99470.22;;;1.86;89.20
64078;BME280;51039;49.696;10.808;2023-02-16T09:06:06;99468.19;;;1.90;88.64
64078;BME280;51039;49.696;10.808;2023-02-16T09:08:32;99469.50;;;1.84;87.08
64078;BME280;51039;49.696;10.808;2023-02-16T09:11:01;99473.31;;;1.91;87.41
64078;BME280;51039;49.696;10.808;2023-02-16T09:13:28;99467.47;;;2.10;86.67
64078;BME280;51039;49.696;10.808;2023-02-16T09:15:53;99465.66;;;2.22;87.40
64078;BME280;51039;49.696;10.808;2023-02-16T09:18:19;99464.06;;;2.42;85.73
64078;BME280;51039;49.696;10.808;2023-02-16T09:20:45;99462.84;;;2.14;85.00
64078;BME280;51039;49.696;10.808;2023-02-16T09:23:10;99468.16;;;2.35;85.81
64078;BME280;51039;49.696;10.808;2023-02-16T09:25:39;99466.81;;;2.73;84.58
64078;BME280;51039;49.696;10.808;2023-02-16T09:28:05;99468.22;;;2.56;83.86
64078;BME280;51039;49.696;10.808;2023-02-16T09:30:36;99457.97;;;2.53;84.35
64078;BME280;51039;49.696;10.808;2023-02-16T09:33:02;99470.84;;;2.77;84.46
64078;BME280;51039;49.696;10.808;2023-02-16T09:35:28;99475.03;;;3.01;82.57
64078;BME280;51039;49.696;10.808;2023-02-16T09:37:53;99477.88;;;2.77;84.45
64078;BME280;51039;49.696;10.808;2023-02-16T09:40:19;99474.69;;;3.15;83.99
64078;BME280;51039;49.696;10.808;2023-02-16T09:45:16;99478.97;;;2.95;82.93
64078;BME280;51039;49.696;10.808;2023-02-16T09:47:45;99479.44;;;3.21;83.00
64078;BME280;51039;49.696;10.808;2023-02-16T09:52:38;99467.88;;;4.16;78.69
64078;BME280;51039;49.696;10.808;2023-02-16T09:55:11;99473.97;;;3.86;80.50
64078;BME280;51039;49.696;10.808;2023-02-16T10:00:50;99470.78;;;4.32;78.80
64078;BME280;51039;49.696;10.808;2023-02-16T10:06:27;99461.72;;;4.56;77.38
64078;BME280;51039;49.696;10.808;2023-02-16T10:09:13;99469.69;;;5.32;75.15
64078;BME280;51039;49.696;10.808;2023-02-16T10:11:46;99459.16;;;5.32;74.63
64078;BME280;51039;49.696;10.808;2023-02-16T10:14:32;99464.44;;;5.23;75.11
64078;BME280;51039;49.696;10.808;2023-02-16T10:19:45;99448.59;;;6.45;71.73
64078;BME280;51039;49.696;10.808;2023-02-16T10:22:14;99453.56;;;7.10;70.14
64078;BME280;51039;49.696;10.808;2023-02-16T10:24:59;99450.19;;;7.70;68.71
64078;BME280;51039;49.696;10.808;2023-02-16T10:27:40;99441.47;;;8.12;66.29
64078;BME280;51039;49.696;10.808;2023-02-16T10:30:16;99449.63;;;7.32;68.36
64078;BME280;51039;49.696;10.808;2023-02-16T10:32:53;99447.72;;;8.11;66.43
64078;BME280;51039;49.696;10.808;2023-02-16T10:35:24;99449.59;;;7.84;67.18
64078;BME280;51039;49.696;10.808;2023-02-16T10:38:13;99446.94;;;7.84;66.93
64078;BME280;51039;49.696;10.808;2023-02-16T10:41:03;99444.81;;;7.88;65.70
64078;BME280;51039;49.696;10.808;2023-02-16T10:43:44;99428.44;;;7.68;67.27
64078;BME280;51039;49.696;10.808;2023-02-16T10:46:29;99431.44;;;8.40;67.00
64078;BME280;51039;49.696;10.808;2023-02-16T10:48:58;99429.22;;;8.87;64.71
64078;BME280;51039;49.696;10.808;2023-02-16T10:51:27;99419.78;;;9.17;63.91
64078;BME280;51039;49.696;10.808;2023-02-16T10:54:01;99415.50;;;9.08;63.21
64078;BME280;51039;49.696;10.808;2023-02-16T10:59:29;99405.44;;;8.70;63.04
64078;BME280;51039;49.696;10.808;2023-02-16T11:02:02;99400.66;;;9.62;61.86
64078;BME280;51039;49.696;10.808;2023-02-16T11:04:49;99395.06;;;9.57;61.00
64078;BME280;51039;49.696;10.808;2023-02-16T11:07:23;99382.34;;;9.53;61.85
64078;BME280;51039;49.696;10.808;2023-02-16T11:09:51;99385.38;;;9.25;63.65
64078;BME280;51039;49.696;10.808;2023-02-16T11:12:29;99383.69;;;9.40;62.55
64078;BME280;51039;49.696;10.808;2023-02-16T11:15:04;99385.75;;;9.22;63.76
64078;BME280;51039;49.696;10.808;2023-02-16T11:20:29;99387.78;;;8.95;63.74
64078;BME280;51039;49.696;10.808;2023-02-16T11:25:39;99382.47;;;8.54;66.03
64078;BME280;51039;49.696;10.808;2023-02-16T11:28:05;99384.97;;;8.48;66.34
64078;BME280;51039;49.696;10.808;2023-02-16T11:30:34;99385.63;;;8.74;64.78
64078;BME280;51039;49.696;10.808;2023-02-16T11:33:03;99383.63;;;8.52;65.23
64078;BME280;51039;49.696;10.808;2023-02-16T11:35:42;99372.75;;;8.63;66.43
64078;BME280;51039;49.696;10.808;2023-02-16T11:38:22;99378.03;;;8.55;66.19
64078;BME280;51039;49.696;10.808;2023-02-16T11:40:52;99372.91;;;8.61;65.45
64078;BME280;51039;49.696;10.808;2023-02-16T11:43:19;99359.66;;;8.29;67.16
64078;BME280;51039;49.696;10.808;2023-02-16T11:45:55;99358.06;;;8.52;66.02
64078;BME280;51039;49.696;10.808;2023-02-16T11:48:28;99357.69;;;8.39;66.67
64078;BME280;51039;49.696;10.808;2023-02-16T11:51:03;99353.78;;;8.76;65.87
64078;BME280;51039;49.696;10.808;2023-02-16T11:53:34;99353.41;;;8.79;65.45
64078;BME280;51039;49.696;10.808;2023-02-16T11:56:44;99354.84;;;8.07;67.50
64078;BME280;51039;49.696;10.808;2023-02-16T11:59:05;99344.53;;;8.63;67.96
64078;BME280;51039;49.696;10.808;2023-02-16T12:12:56;99328.66;;;8.80;66.03
64078;BME280;51039;49.696;10.808;2023-02-16T12:18:23;99329.78;;;9.50;65.86
64078;BME280;51039;49.696;10.808;2023-02-16T12:24:21;99321.72;;;9.43;65.65
64078;BME280;51039;49.696;10.808;2023-02-16T12:26:55;99318.69;;;9.54;65.00
64078;BME280;51039;49.696;10.808;2023-02-16T12:32:25;99313.50;;;9.69;65.86
64078;BME280;51039;49.696;10.808;2023-02-16T12:35:29;99305.06;;;9.34;66.46
64078;BME280;51039;49.696;10.808;2023-02-16T12:38:18;99302.66;;;9.56;66.04
64078;BME280;51039;49.696;10.808;2023-02-16T12:40:59;99303.00;;;9.53;66.34
64078;BME280;51039;49.696;10.808;2023-02-16T12:43:47;99300.00;;;9.16;66.39
64078;BME280;51039;49.696;10.808;2023-02-16T12:46:28;99304.13;;;9.19;67.03
64078;BME280;51039;49.696;10.808;2023-02-16T12:49:04;99296.88;;;9.13;67.32
64078;BME280;51039;49.696;10.808;2023-02-16T12:51:44;99299.00;;;9.17;66.90
64078;BME280;51039;49.696;10.808;2023-02-16T12:56:59;99286.69;;;9.41;66.53
64078;BME280;51039;49.696;10.808;2023-02-16T13:02:15;99282.78;;;9.29;66.83
64078;BME280;51039;49.696;10.808;2023-02-16T13:04:47;99285.41;;;8.89;68.17
64078;BME280;51039;49.696;10.808;2023-02-16T13:07:37;99276.72;;;9.12;68.60
64078;BME280;51039;49.696;10.808;2023-02-16T13:15:34;99265.72;;;9.31;68.90
64078;BME280;51039;49.696;10.808;2023-02-16T13:18:12;99257.63;;;9.64;67.06
64078;BME280;51039;49.696;10.808;2023-02-16T13:20:46;99260.03;;;9.11;67.39
64078;BME280;51039;49.696;10.808;2023-02-16T13:26:07;99254.56;;;9.21;67.20
64078;BME280;51039;49.696;10.808;2023-02-16T13:40:11;99244.78;;;9.61;67.83
64078;BME280;51039;49.696;10.808;2023-02-16T13:43:02;99240.59;;;9.67;66.76
64078;BME280;51039;49.696;10.808;2023-02-16T13:45:38;99238.19;;;9.57;66.70
64078;BME280;51039;49.696;10.808;2023-02-16T13:51:17;99237.88;;;9.52;66.91
64078;BME280;51039;49.696;10.808;2023-02-16T13:53:57;99253.69;;;9.91;66.86
64078;BME280;51039;49.696;10.808;2023-02-16T13:56:31;99253.78;;;9.98;65.46
64078;BME280;51039;49.696;10.808;2023-02-16T14:01:43;99247.75;;;10.27;64.53
64078;BME280;51039;49.696;10.808;2023-02-16T14:06:49;99248.91;;;10.33;65.10
64078;BME280;51039;49.696;10.808;2023-02-16T14:12:03;99237.19;;;10.04;65.69
64078;BME280;51039;49.696;10.808;2023-02-16T14:20:26;99245.53;;;9.93;66.09
64078;BME280;51039;49.696;10.808;2023-02-16T14:30:48;99253.84;;;9.90;66.47
64078;BME280;51039;49.696;10.808;2023-02-16T14:33:20;99251.53;;;9.87;66.10
64078;BME280;51039;49.696;10.808;2023-02-16T14:40:51;99231.19;;;9.64;67.08
64078;BME280;51039;49.696;10.808;2023-02-16T14:45:53;99233.94;;;9.48;67.50
64078;BME280;51039;49.696;10.808;2023-02-16T14:57:50;99237.75;;;9.45;68.25
64078;BME280;51039;49.696;10.808;2023-02-16T15:00:28;99235.78;;;9.70;67.82
64078;BME280;51039;49.696;10.808;2023-02-16T15:03:11;99243.03;;;9.76;67.66
64078;BME280;51039;49.696;10.808;2023-02-16T15:05:54;99239.25;;;9.71;67.67
64078;BME280;51039;49.696;10.808;2023-02-16T15:08:24;99233.41;;;9.75;67.61
64078;BME280;51039;49.696;10.808;2023-02-16T15:11:00;99234.72;;;9.79;67.94
64078;BME280;51039;49.696;10.808;2023-02-16T15:13:37;99231.19;;;9.64;69.40
64078;BME280;51039;49.696;10.808;2023-02-16T15:16:03;99227.44;;;9.58;69.51
64078;BME280;51039;49.696;10.808;2023-02-16T15:18:36;99221.41;;;9.41;69.70
64078;BME280;51039;49.696;10.808;2023-02-16T15:21:06;99218.72;;;9.50;69.72
64078;BME280;51039;49.696;10.808;2023-02-16T15:23:51;99209.22;;;9.32;70.04
64078;BME280;51039;49.696;10.808;2023-02-16T15:26:20;99218.16;;;9.31;70.60
64078;BME280;51039;49.696;10.808;2023-02-16T15:31:19;99210.47;;;9.44;69.31
64078;BME280;51039;49.696;10.808;2023-02-16T15:33:57;99205.81;;;9.47;69.63